createdAt,value
2018-08-03T00:02:05.561Z,23.00
2018-08-03T00:04:34.851Z,22.90
2018-08-03T00:07:04.041Z,22.90
2018-08-03T00:09:33.137Z,22.90
2018-08-03T00:12:02.422Z,22.60
2018-08-03T00:14:31.535Z,22.50
2018-08-03T00:17:00.721Z,22.60
2018-08-03T00:19:29.943Z,22.60
2018-08-03T00:21:58.949Z,22.60
2018-08-03T00:24:28.075Z,22.80
2018-08-03T00:26:57.143Z,23.00
2018-08-03T00:29:27.362Z,22.80
2018-08-03T00:31:56.482Z,22.70
2018-08-03T00:34:25.529Z,22.70
2018-08-03T00:36:55.538Z,22.70
2018-08-03T00:39:25.470Z,22.80
2018-08-03T00:41:55.485Z,22.80
2018-08-03T00:44:25.574Z,22.70
2018-08-03T00:46:55.637Z,22.70
2018-08-03T00:49:25.745Z,22.70
2018-08-03T00:51:55.721Z,22.70
2018-08-03T00:54:25.734Z,22.60
2018-08-03T00:56:55.794Z,22.50
2018-08-03T00:59:25.733Z,22.80
2018-08-03T01:01:55.768Z,22.70
2018-08-03T01:04:26.989Z,22.60
2018-08-03T01:06:56.152Z,22.60
2018-08-03T01:09:26.132Z,22.50
2018-08-03T01:11:56.158Z,22.40
2018-08-03T01:14:26.029Z,22.40
2018-08-03T01:16:56.181Z,22.50
2018-08-03T01:19:27.050Z,22.50
2018-08-03T01:21:56.118Z,22.50
2018-08-03T01:24:27.186Z,22.50
2018-08-03T01:26:56.311Z,22.50
2018-08-03T01:29:27.282Z,22.50
2018-08-03T01:31:56.305Z,22.40
2018-08-03T01:34:27.326Z,22.30
2018-08-03T01:36:56.458Z,22.30
2018-08-03T01:39:27.454Z,22.30
2018-08-03T01:41:56.635Z,22.30
2018-08-03T01:44:27.524Z,22.00
2018-08-03T01:46:56.552Z,21.90
2018-08-03T01:49:27.700Z,21.70
2018-08-03T01:51:56.813Z,21.80
2018-08-03T01:54:27.814Z,21.90
2018-08-03T01:56:56.857Z,21.90
2018-08-03T01:59:27.698Z,21.80
2018-08-03T02:01:57.070Z,21.90
2018-08-03T02:04:28.235Z,21.90
2018-08-03T02:06:57.423Z,21.90
2018-08-03T02:09:27.970Z,21.90
2018-08-03T02:11:57.119Z,21.90
2018-08-03T02:14:27.926Z,21.70
2018-08-03T02:16:57.046Z,21.70
2018-08-03T02:19:28.262Z,21.80
2018-08-03T02:21:57.422Z,21.70
2018-08-03T02:24:28.369Z,21.90
2018-08-03T02:26:57.525Z,22.10
2018-08-03T02:29:28.226Z,22.10
2018-08-03T02:31:57.336Z,22.00
2018-08-03T02:34:28.345Z,22.00
2018-08-03T02:36:57.402Z,21.90
2018-08-03T02:39:28.390Z,21.90
2018-08-03T02:41:57.406Z,21.90
2018-08-03T02:44:28.589Z,21.90
2018-08-03T02:46:57.705Z,21.90
2018-08-03T02:49:28.398Z,21.80
2018-08-03T02:51:57.507Z,21.80
2018-08-03T02:54:28.286Z,21.70
2018-08-03T02:56:57.540Z,21.70
2018-08-03T02:59:28.613Z,21.80
2018-08-03T03:01:57.733Z,21.80
2018-08-03T03:04:28.438Z,21.80
2018-08-03T03:06:57.616Z,21.80
2018-08-03T03:09:28.459Z,21.90
2018-08-03T03:11:57.696Z,21.90
2018-08-03T03:14:28.325Z,21.70
2018-08-03T03:16:57.846Z,21.60
2018-08-03T03:19:28.679Z,21.60
2018-08-03T03:21:57.778Z,21.60
2018-08-03T03:24:28.422Z,22.00
2018-08-03T03:26:57.885Z,22.10
2018-08-03T03:29:28.294Z,22.10
2018-08-03T03:31:57.937Z,22.10
2018-08-03T03:34:28.550Z,22.00
2018-08-03T03:36:57.828Z,22.20
2018-08-03T03:39:28.374Z,22.30
2018-08-03T03:41:58.056Z,22.20
2018-08-03T03:44:28.646Z,22.10
2018-08-03T03:46:58.086Z,22.00
2018-08-03T03:49:28.428Z,22.10
2018-08-03T03:51:58.185Z,22.10
2018-08-03T03:54:28.322Z,22.10
2018-08-03T03:56:58.199Z,22.10
2018-08-03T03:59:28.298Z,22.10
2018-08-03T04:01:58.210Z,22.10
2018-08-03T04:04:28.578Z,22.20
2018-08-03T04:06:58.334Z,22.20
2018-08-03T04:09:28.486Z,22.30
2018-08-03T04:11:58.422Z,22.20
2018-08-03T04:14:28.642Z,21.90
2018-08-03T04:16:58.454Z,22.10
2018-08-03T04:19:28.650Z,21.90
2018-08-03T04:21:58.545Z,21.90
2018-08-03T04:24:28.482Z,21.90
2018-08-03T04:26:58.602Z,22.20
2018-08-03T04:29:28.542Z,22.30
2018-08-03T04:31:58.609Z,22.20
2018-08-03T04:34:28.561Z,22.20
2018-08-03T04:36:58.682Z,22.10
2018-08-03T04:39:28.696Z,22.10
2018-08-03T04:41:58.687Z,22.00
2018-08-03T04:44:28.680Z,22.10
2018-08-03T04:46:58.774Z,22.00
2018-08-03T04:49:28.815Z,22.00
2018-08-03T04:51:58.805Z,22.10
2018-08-03T04:54:28.837Z,22.10
2018-08-03T04:56:58.970Z,22.10
2018-08-03T04:59:28.906Z,22.00
2018-08-03T05:01:58.988Z,21.80
2018-08-03T05:04:29.001Z,21.80
2018-08-03T05:06:59.005Z,21.80
2018-08-03T05:09:29.002Z,21.90
2018-08-03T05:11:59.109Z,22.10
2018-08-03T05:14:29.122Z,22.20
2018-08-03T05:16:59.157Z,22.30
2018-08-03T05:19:29.185Z,22.50
2018-08-03T05:21:59.242Z,22.50
2018-08-03T05:24:29.168Z,22.90
2018-08-03T05:26:59.305Z,23.00
2018-08-03T05:29:29.289Z,22.90
2018-08-03T05:31:59.402Z,22.80
2018-08-03T05:34:29.407Z,22.80
2018-08-03T05:36:59.354Z,22.80
2018-08-03T05:39:29.409Z,23.00
2018-08-03T05:41:59.473Z,23.20
2018-08-03T05:44:29.302Z,23.20
2018-08-03T05:46:59.590Z,23.30
2018-08-03T05:49:29.466Z,23.50
2018-08-03T05:51:59.466Z,23.80
2018-08-03T05:54:29.493Z,23.80
2018-08-03T05:56:59.698Z,23.80
2018-08-03T05:59:29.563Z,23.90
2018-08-03T06:01:59.675Z,23.80
2018-08-03T06:04:29.745Z,23.90
2018-08-03T06:06:59.837Z,24.00
2018-08-03T06:09:29.838Z,24.20
2018-08-03T06:11:59.845Z,24.40
2018-08-03T06:14:29.776Z,24.20
2018-08-03T06:16:59.947Z,24.20
2018-08-03T06:19:29.859Z,24.10
2018-08-03T06:21:59.918Z,24.10
2018-08-03T06:24:30.326Z,24.10
2018-08-03T06:27:00.037Z,24.10
2018-08-03T06:29:30.623Z,24.20
2018-08-03T06:32:00.143Z,24.40
2018-08-03T06:34:30.135Z,24.60
2018-08-03T06:37:00.064Z,24.50
2018-08-03T06:39:30.138Z,24.60
2018-08-03T06:42:00.179Z,24.60
2018-08-03T06:44:30.171Z,24.80
2018-08-03T06:47:00.277Z,24.80
2018-08-03T06:49:30.273Z,24.90
2018-08-03T06:52:00.380Z,24.90
2018-08-03T06:54:30.252Z,24.90
2018-08-03T06:57:00.415Z,24.90
2018-08-03T06:59:30.475Z,24.90
2018-08-03T07:02:00.451Z,25.10
2018-08-03T07:04:30.468Z,25.20
2018-08-03T07:07:00.521Z,25.10
2018-08-03T07:09:30.498Z,25.30
2018-08-03T07:12:00.607Z,25.50
2018-08-03T07:14:30.646Z,25.40
2018-08-03T07:17:00.681Z,25.40
2018-08-03T07:19:30.678Z,25.50
2018-08-03T07:22:00.766Z,25.50
2018-08-03T07:24:30.726Z,25.30
2018-08-03T07:27:00.833Z,25.30
2018-08-03T07:29:30.761Z,25.50
2018-08-03T07:32:00.886Z,25.60
2018-08-03T07:34:30.980Z,25.90
2018-08-03T07:37:00.886Z,26.20
2018-08-03T07:39:30.993Z,26.30
2018-08-03T07:42:00.882Z,26.40
2018-08-03T07:44:31.001Z,26.40
2018-08-03T07:47:00.983Z,26.50
2018-08-03T07:49:31.098Z,26.80
2018-08-03T07:52:01.110Z,26.80
2018-08-03T07:54:31.206Z,27.00
2018-08-03T07:57:01.234Z,27.20
2018-08-03T07:59:31.250Z,27.20
2018-08-03T08:02:01.210Z,27.10
2018-08-03T08:04:31.358Z,27.10
2018-08-03T08:07:01.342Z,27.50
2018-08-03T08:09:31.441Z,27.60
2018-08-03T08:12:01.415Z,27.50
2018-08-03T08:14:31.502Z,27.50
2018-08-03T08:17:01.555Z,27.40
2018-08-03T08:19:31.561Z,27.50
2018-08-03T08:22:01.660Z,27.50
2018-08-03T08:24:31.578Z,27.60
2018-08-03T08:27:01.575Z,27.80
2018-08-03T08:29:31.727Z,28.00
2018-08-03T08:32:01.742Z,27.90
2018-08-03T08:34:31.681Z,28.00
2018-08-03T08:37:01.730Z,28.10
2018-08-03T08:39:31.820Z,28.10
2018-08-03T08:42:01.922Z,28.30
2018-08-03T08:44:31.935Z,28.30
2018-08-03T08:47:01.998Z,28.40
2018-08-03T08:49:32.022Z,28.40
2018-08-03T08:52:02.029Z,28.50
2018-08-03T08:54:32.047Z,28.50
2018-08-03T08:57:02.124Z,28.70
2018-08-03T08:59:32.104Z,28.90
2018-08-03T09:02:02.197Z,28.80
2018-08-03T09:04:32.217Z,29.00
2018-08-03T09:07:02.214Z,28.90
2018-08-03T09:09:32.383Z,29.00
2018-08-03T09:12:02.458Z,29.10
2018-08-03T09:14:32.435Z,29.00
2018-08-03T09:17:02.415Z,29.10
2018-08-03T09:19:32.455Z,29.10
2018-08-03T09:22:02.568Z,29.40
2018-08-03T09:24:32.648Z,29.40
2018-08-03T09:27:02.556Z,29.60
2018-08-03T09:29:32.619Z,29.60
2018-08-03T09:32:02.740Z,29.60
2018-08-03T09:34:32.698Z,29.70
2018-08-03T09:37:02.710Z,29.70
2018-08-03T09:39:32.799Z,29.70
2018-08-03T09:42:02.734Z,29.90
2018-08-03T09:44:32.955Z,29.90
2018-08-03T09:47:02.940Z,30.00
2018-08-03T09:49:32.961Z,30.30
2018-08-03T09:52:02.850Z,30.30
2018-08-03T09:54:33.103Z,30.20
2018-08-03T09:57:03.064Z,30.40
2018-08-03T09:59:33.051Z,30.20
2018-08-03T10:02:03.084Z,30.20
2018-08-03T10:04:33.048Z,30.40
2018-08-03T10:07:03.112Z,30.30
2018-08-03T10:09:33.232Z,30.20
2018-08-03T10:12:03.258Z,30.50
2018-08-03T10:14:33.285Z,30.80
2018-08-03T10:17:03.337Z,30.70
2018-08-03T10:19:33.624Z,30.80
2018-08-03T10:22:03.402Z,30.70
2018-08-03T10:24:33.461Z,30.80
2018-08-03T10:27:03.449Z,30.80
2018-08-03T10:29:33.586Z,30.70
2018-08-03T10:32:03.498Z,30.70
2018-08-03T10:34:33.588Z,30.90
2018-08-03T10:37:03.550Z,30.90
2018-08-03T10:39:33.838Z,31.00
2018-08-03T10:42:03.753Z,31.00
2018-08-03T10:44:33.801Z,31.10
2018-08-03T10:47:03.785Z,30.90
2018-08-03T10:49:33.764Z,31.00
2018-08-03T10:52:03.830Z,31.00
2018-08-03T10:54:33.848Z,31.20
2018-08-03T10:57:04.196Z,31.20
2018-08-03T10:59:33.991Z,31.30
2018-08-03T11:02:03.867Z,31.30
2018-08-03T11:04:34.162Z,31.40
2018-08-03T11:07:04.019Z,31.30
2018-08-03T11:09:34.113Z,31.00
2018-08-03T11:12:04.558Z,31.50
2018-08-03T11:14:34.294Z,32.10
2018-08-03T11:17:04.243Z,32.40
2018-08-03T11:19:34.221Z,33.00
2018-08-03T11:22:04.270Z,33.20
2018-08-03T11:24:34.348Z,33.00
2018-08-03T11:27:04.334Z,33.00
2018-08-03T11:29:34.419Z,33.60
2018-08-03T11:32:04.337Z,33.60
2018-08-03T11:34:34.548Z,33.80
2018-08-03T11:37:04.462Z,34.10
2018-08-03T11:39:34.562Z,34.10
2018-08-03T11:42:04.516Z,34.30
2018-08-03T11:44:34.626Z,34.60
2018-08-03T11:47:04.666Z,34.90
2018-08-03T11:49:34.729Z,35.50
2018-08-03T11:52:04.770Z,34.90
2018-08-03T11:54:35.192Z,33.10
2018-08-03T11:57:04.879Z,32.40
2018-08-03T11:59:34.988Z,32.90
2018-08-03T12:02:04.910Z,32.50
2018-08-03T12:04:34.986Z,32.00
2018-08-03T12:07:04.937Z,31.70
2018-08-03T12:09:35.290Z,32.60
2018-08-03T12:12:05.254Z,33.10
2018-08-03T12:14:35.163Z,33.60
2018-08-03T12:17:05.221Z,33.60
2018-08-03T12:19:35.258Z,34.30
2018-08-03T12:22:05.330Z,33.90
2018-08-03T12:24:35.277Z,32.80
2018-08-03T12:27:05.264Z,32.10
2018-08-03T12:29:35.547Z,31.30
2018-08-03T12:32:05.408Z,31.80
2018-08-03T12:59:00.941Z,32.90
2018-08-03T13:01:33.382Z,33.60
2018-08-03T13:04:02.683Z,34.10
2018-08-03T13:06:31.882Z,34.30
2018-08-03T13:09:01.219Z,34.70
2018-08-03T13:11:31.217Z,34.70
2018-08-03T13:14:07.369Z,34.90
2018-08-03T13:16:36.614Z,35.20
2018-08-03T13:48:24.698Z,35.40
2018-08-03T13:50:54.859Z,32.40
2018-08-03T13:53:24.071Z,32.30
2018-08-03T13:55:54.194Z,32.30
2018-08-03T13:58:24.505Z,32.30
2018-08-03T14:01:09.482Z,32.10
2018-08-03T14:03:40.685Z,31.90
2018-08-03T14:06:09.902Z,31.70
2018-08-03T14:08:39.022Z,31.90
2018-08-03T14:11:08.207Z,31.90
2018-08-03T14:13:37.434Z,31.90
2018-08-03T14:16:06.902Z,31.90
2018-08-03T14:18:36.938Z,32.10
2018-08-03T14:21:06.935Z,32.30
2018-08-03T14:23:36.941Z,32.30
2018-08-03T14:26:07.283Z,32.20
2018-08-03T14:28:37.132Z,31.90
2018-08-03T14:31:06.906Z,31.80
2018-08-03T14:33:36.993Z,31.90
2018-08-03T14:36:07.186Z,31.60
2018-08-03T14:38:37.087Z,31.60
2018-08-03T14:41:07.227Z,31.60
2018-08-03T14:43:37.090Z,31.60
2018-08-03T14:46:07.109Z,31.70
2018-08-03T14:48:37.214Z,31.80
2018-08-03T14:51:07.427Z,31.90
2018-08-03T14:53:37.296Z,31.80
2018-08-03T14:56:07.224Z,31.80
2018-08-03T14:58:37.542Z,31.90
2018-08-03T15:01:07.269Z,32.00
2018-08-03T15:03:37.634Z,32.20
2018-08-03T15:06:07.453Z,32.30
2018-08-03T15:08:37.797Z,32.10
2018-08-03T15:11:08.098Z,32.00
2018-08-03T15:13:37.274Z,31.90
2018-08-03T15:16:07.571Z,32.00
2018-08-03T15:18:37.778Z,32.00
2018-08-03T15:40:40.927Z,32.00
2018-08-03T15:43:10.138Z,32.10
2018-08-03T15:45:39.380Z,32.20
2018-08-03T15:48:08.528Z,32.40
2018-08-03T15:50:37.742Z,32.50
2018-08-03T15:53:07.590Z,32.60
2018-08-03T15:55:37.370Z,32.50
2018-08-03T15:58:09.205Z,32.30
2018-08-03T16:00:40.330Z,32.10
2018-08-03T16:03:12.482Z,32.00
2018-08-03T16:05:43.965Z,32.10
2018-08-03T16:08:13.202Z,32.10
2018-08-03T16:10:43.977Z,32.10
2018-08-03T16:13:14.067Z,32.00
2018-08-03T16:15:43.273Z,32.10
2018-08-03T16:18:13.385Z,32.00
2018-08-03T16:20:43.731Z,32.20
2018-08-03T16:23:13.946Z,32.30
2018-08-03T16:25:44.108Z,32.50
2018-08-03T16:28:14.335Z,32.40
2018-08-03T16:30:44.398Z,32.50
2018-08-03T16:33:14.121Z,32.80
2018-08-03T16:35:43.881Z,32.90
2018-08-03T16:38:13.114Z,32.90
2018-08-03T16:40:42.289Z,32.70
2018-08-03T16:43:11.438Z,32.30
2018-08-03T16:45:40.629Z,32.30
2018-08-03T16:48:09.784Z,32.30
2018-08-03T16:50:38.864Z,32.40
2018-08-03T16:53:08.240Z,32.40
2018-08-03T16:55:37.711Z,32.50
2018-08-03T16:58:08.442Z,32.40
2018-08-03T17:00:37.651Z,31.90
2018-08-03T17:03:12.335Z,31.60
2018-08-03T17:05:44.405Z,31.40
2018-08-03T17:08:13.769Z,31.20
2018-08-03T17:10:42.918Z,30.90
2018-08-03T17:13:12.170Z,30.70
2018-08-03T17:15:41.321Z,30.70
2018-08-03T17:18:10.559Z,30.60
2018-08-03T17:20:39.870Z,30.60
2018-08-03T17:23:09.042Z,30.60
2018-08-03T17:25:38.178Z,30.50
2018-08-03T17:28:08.044Z,30.40
2018-08-03T17:30:38.359Z,30.30
2018-08-03T17:33:08.400Z,30.20
2018-08-03T17:35:39.094Z,30.10
2018-08-03T17:38:10.524Z,30.00
2018-08-03T17:40:40.746Z,30.00
2018-08-03T17:43:09.966Z,29.90
2018-08-03T17:45:39.209Z,29.80
2018-08-03T17:48:08.474Z,29.80
2018-08-03T17:50:38.131Z,29.70
2018-08-03T17:53:08.138Z,29.70
2018-08-03T17:55:38.214Z,29.70
2018-08-03T17:58:09.189Z,29.50
2018-08-03T18:00:38.395Z,29.50
2018-08-03T18:03:08.210Z,29.50
2018-08-03T18:05:38.219Z,29.40
2018-08-03T18:08:08.138Z,29.30
2018-08-03T18:10:38.362Z,29.20
2018-08-03T18:13:08.052Z,29.10
2018-08-03T18:15:38.334Z,29.00
2018-08-03T18:18:08.141Z,29.00
2018-08-03T18:20:38.245Z,28.90
2018-08-03T18:23:08.311Z,28.90
2018-08-03T18:25:38.286Z,28.70
2018-08-03T18:28:08.355Z,28.70
2018-08-03T18:30:38.394Z,28.60
2018-08-03T18:33:08.387Z,28.50
2018-08-03T18:35:40.982Z,28.40
2018-08-03T18:38:13.382Z,28.40
2018-08-03T18:40:42.467Z,28.40
2018-08-03T18:43:11.598Z,28.30
2018-08-03T18:45:40.826Z,28.10
2018-08-03T18:48:09.959Z,28.20
2018-08-03T18:50:39.099Z,28.20
2018-08-03T18:53:08.549Z,28.10
2018-08-03T18:55:38.542Z,28.10
2018-08-03T18:58:08.582Z,28.10
2018-08-03T19:00:38.598Z,28.00
2018-08-03T19:03:08.581Z,27.80
2018-08-03T19:05:38.605Z,27.80
2018-08-03T19:08:08.545Z,27.70
2018-08-03T19:10:38.589Z,27.60
2018-08-03T19:13:08.624Z,27.50
2018-08-03T19:15:38.749Z,27.60
2018-08-03T19:18:08.727Z,27.60
2018-08-03T19:20:38.865Z,27.60
2018-08-03T19:23:08.818Z,27.50
2018-08-03T19:25:38.802Z,27.50
2018-08-03T19:28:09.211Z,27.40
2018-08-03T19:30:38.861Z,27.40
2018-08-03T19:33:08.706Z,27.40
2018-08-03T19:35:38.894Z,27.30
2018-08-03T19:38:08.761Z,27.20
2018-08-03T19:40:38.846Z,27.20
2018-08-03T19:43:08.828Z,27.10
2018-08-03T19:45:38.714Z,27.20
2018-08-03T19:48:08.914Z,27.20
2018-08-03T19:50:38.794Z,27.10
2018-08-03T19:53:09.035Z,27.00
2018-08-03T19:55:38.981Z,26.90
2018-08-03T19:58:08.925Z,26.90
2018-08-03T20:00:38.854Z,26.80
2018-08-03T20:03:09.023Z,26.80
2018-08-03T20:05:39.002Z,26.80
2018-08-03T20:08:09.106Z,26.70
2018-08-03T20:10:39.025Z,26.70
2018-08-03T20:13:09.046Z,26.60
2018-08-03T20:15:39.052Z,26.50
2018-08-03T20:18:09.082Z,26.50
2018-08-03T20:20:39.126Z,26.40
2018-08-03T20:23:09.151Z,26.40
2018-08-03T20:25:39.101Z,26.30
2018-08-03T20:28:09.167Z,26.20
2018-08-03T20:30:39.215Z,26.10
2018-08-03T20:33:09.322Z,26.00
2018-08-03T20:35:39.223Z,26.00
2018-08-03T20:38:09.318Z,25.90
2018-08-03T20:40:39.371Z,25.80
2018-08-03T20:43:09.289Z,25.80
2018-08-03T20:45:39.277Z,25.70
2018-08-03T20:48:09.340Z,25.60
2018-08-03T20:50:39.340Z,25.60
2018-08-03T20:53:09.464Z,25.50
2018-08-03T20:55:39.471Z,25.40
2018-08-03T20:58:09.537Z,25.30
2018-08-03T21:00:39.230Z,25.30
2018-08-03T21:03:09.382Z,25.20
2018-08-03T21:05:39.423Z,25.20
2018-08-03T21:08:09.530Z,25.20
2018-08-03T21:10:39.371Z,25.30
2018-08-03T21:13:09.482Z,25.30
2018-08-03T21:15:39.492Z,25.30
2018-08-03T21:18:09.533Z,25.30
2018-08-03T21:20:39.810Z,25.40
2018-08-03T21:23:09.225Z,25.40
2018-08-03T21:25:39.314Z,25.40
2018-08-03T21:28:09.675Z,25.40
2018-08-03T21:30:39.598Z,25.50
2018-08-03T21:33:09.580Z,25.40
2018-08-03T21:35:39.730Z,25.40
2018-08-03T21:38:09.676Z,25.40
2018-08-03T21:40:39.638Z,25.40
2018-08-03T21:43:09.708Z,25.30
2018-08-03T21:45:39.703Z,25.30
2018-08-03T21:48:09.751Z,25.30
2018-08-03T21:50:39.818Z,25.30
2018-08-03T21:53:09.849Z,25.10
2018-08-03T21:55:39.594Z,25.00
2018-08-03T21:58:09.974Z,24.90
2018-08-03T22:00:39.705Z,25.00
2018-08-03T22:03:09.934Z,24.90
2018-08-03T22:05:39.877Z,24.90
2018-08-03T22:08:09.977Z,24.90
2018-08-03T22:10:39.850Z,24.90
2018-08-03T22:13:09.916Z,24.90
2018-08-03T22:15:39.984Z,24.90
2018-08-03T22:18:09.902Z,24.90
2018-08-03T22:20:40.204Z,25.00
2018-08-03T22:23:10.007Z,24.90
2018-08-03T22:25:40.091Z,24.90
2018-08-03T22:28:10.039Z,24.90
2018-08-03T22:30:40.169Z,24.80
2018-08-03T22:33:10.035Z,24.90
2018-08-03T22:35:40.118Z,24.80
2018-08-03T22:38:10.182Z,24.80
2018-08-03T22:40:40.125Z,24.80
2018-08-03T22:43:10.026Z,24.80
2018-08-03T22:45:40.301Z,24.80
2018-08-03T22:48:10.196Z,24.80
2018-08-03T22:50:40.149Z,24.70
2018-08-03T22:53:10.136Z,24.70
2018-08-03T22:55:40.304Z,24.60
2018-08-03T22:58:10.138Z,24.60
2018-08-03T23:00:40.266Z,24.60
2018-08-03T23:03:10.095Z,24.70
2018-08-03T23:05:40.171Z,24.70
2018-08-03T23:08:10.218Z,24.70
2018-08-03T23:10:40.214Z,24.70
2018-08-03T23:13:10.213Z,24.70
2018-08-03T23:15:40.291Z,24.70
2018-08-03T23:18:10.293Z,24.60
2018-08-03T23:20:40.343Z,24.60
2018-08-03T23:23:10.377Z,24.60
2018-08-03T23:25:40.402Z,24.60
2018-08-03T23:28:10.351Z,24.50
2018-08-03T23:30:40.330Z,24.40
2018-08-03T23:33:10.350Z,24.10
2018-08-03T23:35:40.452Z,24.00
2018-08-03T23:38:10.610Z,24.00
2018-08-03T23:40:40.514Z,23.80
2018-08-03T23:43:10.238Z,23.60
2018-08-03T23:45:40.374Z,23.60
2018-08-03T23:48:10.502Z,23.50
2018-08-03T23:50:40.511Z,23.40
2018-08-03T23:53:10.629Z,23.30
2018-08-03T23:55:40.593Z,23.30
2018-08-03T23:58:10.625Z,23.20
